createdAt,value
2018-06-20T00:00:29.560Z,90.70
2018-06-20T00:02:57.931Z,90.60
2018-06-20T00:05:26.269Z,90.70
2018-06-20T00:07:54.592Z,90.70
2018-06-20T00:10:22.929Z,90.70
2018-06-20T00:12:51.260Z,90.90
2018-06-20T00:15:19.600Z,91.40
2018-06-20T00:20:15.953Z,91.60
2018-06-20T00:22:44.257Z,91.60
2018-06-20T00:25:12.564Z,91.60
2018-06-20T00:27:40.897Z,91.60
2018-06-20T00:30:09.198Z,91.60
2018-06-20T00:32:38.602Z,91.70
2018-06-20T00:35:06.864Z,91.70
2018-06-20T00:37:35.213Z,91.70
2018-06-20T00:40:03.533Z,91.80
2018-06-20T00:42:31.948Z,92.20
2018-06-20T00:45:00.262Z,92.10
2018-06-20T00:49:56.612Z,92.20
2018-06-20T00:54:52.973Z,92.40
2018-06-20T00:59:49.322Z,92.30
2018-06-20T01:02:17.644Z,92.30
2018-06-20T01:04:45.969Z,92.30
2018-06-20T01:07:14.301Z,92.30
2018-06-20T01:09:42.615Z,92.30
2018-06-20T01:12:10.943Z,92.50
2018-06-20T01:14:39.252Z,92.60
2018-06-20T01:17:07.594Z,92.70
2018-06-20T01:19:36.094Z,92.80
2018-06-20T01:22:04.452Z,92.80
2018-06-20T01:24:32.765Z,92.80
2018-06-20T01:27:01.101Z,92.90
2018-06-20T01:29:29.417Z,93.00
2018-06-20T01:31:57.744Z,93.20
2018-06-20T01:34:26.058Z,93.20
2018-06-20T01:36:54.393Z,93.40
2018-06-20T01:39:22.713Z,93.50
2018-06-20T01:41:51.044Z,93.50
2018-06-20T01:46:47.400Z,94.00
2018-06-20T01:49:15.722Z,93.60
2018-06-20T01:51:44.021Z,93.60
2018-06-20T01:54:12.363Z,93.40
2018-06-20T01:56:40.665Z,93.50
2018-06-20T01:59:08.996Z,93.50
2018-06-20T02:01:37.313Z,93.50
2018-06-20T02:04:05.637Z,93.60
2018-06-20T02:06:33.945Z,93.60
2018-06-20T02:09:02.271Z,93.60
2018-06-20T02:11:31.462Z,93.60
2018-06-20T02:13:59.784Z,93.80
2018-06-20T02:18:56.158Z,94.40
2018-06-20T02:21:24.483Z,94.00
2018-06-20T02:23:52.817Z,94.10
2018-06-20T02:26:21.132Z,94.20
2018-06-20T02:28:49.465Z,94.40
2018-06-20T02:31:17.782Z,94.60
2018-06-20T02:33:46.210Z,94.60
2018-06-20T02:38:48.038Z,94.60
2018-06-20T02:41:16.360Z,94.60
2018-06-20T02:43:44.713Z,94.60
2018-06-20T02:46:13.020Z,94.70
2018-06-20T02:48:41.349Z,94.80
2018-06-20T02:51:09.665Z,94.80
2018-06-20T02:53:37.982Z,94.80
2018-06-20T02:58:34.370Z,94.90
2018-06-20T03:01:02.691Z,95.00
2018-06-20T03:05:59.189Z,95.20
2018-06-20T03:08:27.546Z,95.20
2018-06-20T03:10:55.904Z,95.30
2018-06-20T03:15:52.259Z,95.20
2018-06-20T03:20:48.637Z,95.10
2018-06-20T03:23:17.023Z,95.10
2018-06-20T03:25:45.353Z,95.20
2018-06-20T03:28:13.673Z,95.10
2018-06-20T03:30:41.999Z,95.20
2018-06-20T03:33:10.305Z,95.20
2018-06-20T03:38:06.672Z,95.10
2018-06-20T03:40:34.989Z,94.90
2018-06-20T03:43:03.303Z,95.10
2018-06-20T03:50:27.741Z,95.20
2018-06-20T03:52:56.053Z,95.20
2018-06-20T03:55:24.373Z,95.30
2018-06-20T03:57:52.694Z,95.40
2018-06-20T04:00:21.049Z,95.30
2018-06-20T04:05:17.420Z,95.30
2018-06-20T04:07:45.742Z,95.20
2018-06-20T04:10:14.756Z,95.30
2018-06-20T04:12:43.106Z,95.30
2018-06-20T04:15:11.413Z,95.40
2018-06-20T04:17:39.744Z,95.50
2018-06-20T04:20:08.062Z,95.40
2018-06-20T04:22:36.389Z,95.40
2018-06-20T04:25:04.717Z,95.40
2018-06-20T04:27:33.049Z,95.40
2018-06-20T04:30:01.362Z,95.40
2018-06-20T04:32:29.692Z,95.50
2018-06-20T04:34:58.056Z,95.60
2018-06-20T04:37:26.349Z,95.50
2018-06-20T04:39:54.661Z,95.30
2018-06-20T04:42:22.993Z,95.20
2018-06-20T04:44:51.336Z,95.40
2018-06-20T04:47:19.669Z,94.90
2018-06-20T04:49:48.000Z,94.50
2018-06-20T04:52:16.355Z,94.30
2018-06-20T04:54:44.667Z,93.90
2018-06-20T04:57:13.004Z,93.70
2018-06-20T04:59:41.326Z,93.60
2018-06-20T05:02:09.655Z,93.60
2018-06-20T05:04:37.980Z,93.50
2018-06-20T05:07:06.315Z,93.10
2018-06-20T05:09:34.655Z,92.60
2018-06-20T05:20:00.444Z,91.30
2018-06-20T05:22:28.811Z,91.00
2018-06-20T05:24:57.105Z,90.60
2018-06-20T05:27:25.441Z,90.10
2018-06-20T05:29:53.761Z,89.70
2018-06-20T05:32:22.106Z,88.60
2018-06-20T05:34:50.418Z,88.50
2018-06-20T05:37:18.764Z,88.00
2018-06-20T05:39:47.089Z,87.80
2018-06-20T05:42:15.410Z,86.70
2018-06-20T05:44:43.792Z,85.60
2018-06-20T05:47:12.158Z,84.90
2018-06-20T05:49:40.515Z,84.90
2018-06-20T05:52:08.860Z,84.80
2018-06-20T05:57:05.258Z,83.00
2018-06-20T05:59:33.706Z,82.80
2018-06-20T06:02:02.034Z,83.40
2018-06-20T06:04:30.368Z,83.40
2018-06-20T06:06:58.694Z,82.70
2018-06-20T06:09:27.027Z,81.90
2018-06-20T06:11:55.408Z,82.00
2018-06-20T06:14:23.869Z,81.10
2018-06-20T06:19:20.288Z,79.80
2018-06-20T06:21:48.621Z,79.60
2018-06-20T06:24:17.105Z,78.00
2018-06-20T06:26:45.439Z,76.20
2018-06-20T06:29:13.798Z,76.10
2018-06-20T06:31:42.128Z,75.80
2018-06-20T06:34:10.538Z,76.60
2018-06-20T06:36:38.877Z,77.30
2018-06-20T06:39:09.593Z,76.50
2018-06-20T06:41:38.033Z,77.00
2018-06-20T06:44:06.390Z,76.50
2018-06-20T06:46:34.790Z,75.60
2018-06-20T06:49:03.187Z,74.60
2018-06-20T06:51:32.921Z,73.50
2018-06-20T06:57:38.066Z,73.70
2018-06-20T07:05:13.170Z,74.10
2018-06-20T07:07:52.335Z,73.10
2018-06-20T07:10:20.668Z,73.70
2018-06-20T07:12:49.389Z,70.20
2018-06-20T07:15:17.854Z,72.30
2018-06-20T07:17:46.178Z,72.30
2018-06-20T07:20:14.506Z,70.90
2018-06-20T07:22:50.957Z,70.20
2018-06-20T07:25:20.363Z,69.60
2018-06-20T07:27:48.741Z,69.10
2018-06-20T07:30:20.153Z,70.20
2018-06-20T07:32:48.474Z,69.40
2018-06-20T07:35:16.833Z,68.80
2018-06-20T07:37:45.145Z,68.20
2018-06-20T07:40:13.469Z,64.90
2018-06-20T07:45:09.897Z,65.80
2018-06-20T07:47:38.208Z,64.80
2018-06-20T07:50:06.534Z,64.30
2018-06-20T07:52:34.865Z,62.10
2018-06-20T07:55:03.189Z,63.10
2018-06-20T07:57:31.537Z,60.80
2018-06-20T08:00:05.496Z,60.40
2018-06-20T08:02:50.721Z,61.00
2018-06-20T08:05:24.472Z,60.20
2018-06-20T08:07:58.393Z,61.60
2018-06-20T08:10:32.092Z,60.40
2018-06-20T08:13:05.778Z,60.70
2018-06-20T08:15:39.504Z,60.40
2018-06-20T08:18:13.209Z,59.90
2018-06-20T08:20:41.539Z,59.60
2018-06-20T08:23:09.997Z,59.90
2018-06-20T08:25:38.349Z,59.10
2018-06-20T08:28:06.683Z,59.10
2018-06-20T08:30:35.042Z,59.30
2018-06-20T08:33:03.438Z,61.10
2018-06-20T08:35:33.078Z,58.60
2018-06-20T08:38:03.441Z,58.60
2018-06-20T08:40:31.772Z,58.20
2018-06-20T08:43:00.113Z,59.30
2018-06-20T08:45:28.436Z,58.40
2018-06-20T08:47:56.777Z,57.90
2018-06-20T08:50:25.090Z,57.70
2018-06-20T08:52:53.448Z,56.20
2018-06-20T08:55:21.769Z,58.60
2018-06-20T08:57:50.114Z,59.00
2018-06-20T09:00:23.950Z,56.90
2018-06-20T09:02:52.299Z,57.50
2018-06-20T09:05:25.957Z,57.80
2018-06-20T09:07:59.625Z,57.80
2018-06-20T09:10:33.354Z,55.80
2018-06-20T09:13:07.144Z,55.00
2018-06-20T09:15:41.129Z,55.20
2018-06-20T09:18:14.845Z,54.80
2018-06-20T09:20:43.183Z,55.40
2018-06-20T09:23:11.553Z,56.40
2018-06-20T09:25:39.870Z,53.60
2018-06-20T09:28:08.237Z,53.00
2018-06-20T09:30:36.588Z,53.90
2018-06-20T09:33:04.933Z,54.10
2018-06-20T09:35:33.269Z,53.20
2018-06-20T09:38:01.647Z,53.80
2018-06-20T09:40:31.101Z,53.10
2018-06-20T09:42:59.473Z,53.90
2018-06-20T09:45:27.828Z,53.00
2018-06-20T09:47:56.133Z,52.20
2018-06-20T09:50:29.646Z,52.00
2018-06-20T09:52:58.014Z,53.20
2018-06-20T09:55:26.335Z,52.60
2018-06-20T09:57:54.685Z,52.70
2018-06-20T10:00:28.549Z,52.60
2018-06-20T10:03:02.185Z,51.10
2018-06-20T10:05:35.942Z,50.50
2018-06-20T10:08:09.742Z,52.20
2018-06-20T10:13:13.681Z,50.50
2018-06-20T10:15:42.117Z,50.00
2018-06-20T10:18:10.462Z,49.90
2018-06-20T10:20:38.817Z,49.00
2018-06-20T10:23:07.145Z,47.40
2018-06-20T10:25:35.477Z,46.80
2018-06-20T10:28:03.845Z,49.60
2018-06-20T10:30:32.185Z,50.10
2018-06-20T10:33:00.518Z,48.60
2018-06-20T10:35:28.870Z,49.30
2018-06-20T10:37:57.184Z,49.60
2018-06-20T10:40:25.514Z,48.60
2018-06-20T10:42:53.830Z,49.70
2018-06-20T10:45:27.490Z,49.80
2018-06-20T10:47:55.857Z,48.50
2018-06-20T10:50:25.418Z,49.10
2018-06-20T10:52:53.805Z,48.60
2018-06-20T10:55:22.143Z,47.30
2018-06-20T10:57:56.007Z,49.40
2018-06-20T11:00:29.709Z,49.80
2018-06-20T11:03:03.571Z,47.60
2018-06-20T11:05:37.278Z,48.40
2018-06-20T11:09:13.708Z,47.80
2018-06-20T11:11:47.305Z,46.60
2018-06-20T11:14:15.648Z,46.70
2018-06-20T11:19:11.998Z,48.40
2018-06-20T11:21:41.388Z,48.50
2018-06-20T11:24:15.044Z,48.10
2018-06-20T11:26:43.380Z,47.10
2018-06-20T11:29:11.979Z,47.50
2018-06-20T11:31:40.353Z,48.40
2018-06-20T11:34:08.869Z,48.70
2018-06-20T11:36:37.285Z,48.60
2018-06-20T11:39:08.092Z,49.00
2018-06-20T11:41:36.530Z,48.20
2018-06-20T11:44:04.845Z,47.40
2018-06-20T11:46:38.705Z,48.40
2018-06-20T11:49:07.025Z,47.60
2018-06-20T11:51:35.357Z,47.50
2018-06-20T11:54:03.718Z,49.30
2018-06-20T11:56:32.077Z,48.50
2018-06-20T11:59:05.834Z,49.10
2018-06-20T12:01:39.512Z,48.70
2018-06-20T12:04:13.229Z,50.20
2018-06-20T12:06:47.001Z,47.90
2018-06-20T12:09:20.734Z,47.70
2018-06-20T12:11:54.452Z,48.50
2018-06-20T12:14:28.237Z,47.80
2018-06-20T12:16:55.821Z,48.60
2018-06-20T12:19:29.541Z,45.90
2018-06-20T12:22:03.338Z,46.90
2018-06-20T12:24:36.973Z,45.60
2018-06-20T12:27:10.814Z,44.60
2018-06-20T12:29:44.865Z,44.60
2018-06-20T12:32:18.492Z,43.20
2018-06-20T12:34:52.186Z,45.60
2018-06-20T12:37:25.932Z,45.70
2018-06-20T12:40:07.182Z,43.80
2018-06-20T12:42:40.880Z,44.80
2018-06-20T12:45:12.815Z,46.50
2018-06-20T12:47:45.363Z,48.10
2018-06-20T12:50:20.626Z,46.40
2018-06-20T12:52:49.744Z,45.90
2018-06-20T12:55:18.068Z,45.90
2018-06-20T12:57:46.421Z,45.50
2018-06-20T13:00:14.957Z,46.30
2018-06-20T13:02:43.529Z,45.50
2018-06-20T13:05:11.860Z,44.80
2018-06-20T13:07:48.275Z,47.10
2018-06-20T13:10:24.673Z,44.40
2018-06-20T13:13:05.476Z,44.00
2018-06-20T13:15:43.104Z,44.00
2018-06-20T13:18:25.104Z,46.10
2018-06-20T13:20:54.297Z,45.30
2018-06-20T13:23:22.641Z,46.80
2018-06-20T13:25:50.961Z,45.80
2018-06-20T13:28:19.542Z,46.40
2018-06-20T13:30:52.077Z,45.10
2018-06-20T13:33:25.876Z,45.70
2018-06-20T13:35:59.550Z,45.80
2018-06-20T13:38:33.673Z,46.00
2018-06-20T13:41:07.339Z,45.90
2018-06-20T13:44:39.664Z,46.80
2018-06-20T13:47:13.265Z,47.50
2018-06-20T13:49:41.606Z,44.40
2018-06-20T13:52:09.931Z,45.10
2018-06-20T13:54:52.491Z,46.70
2018-06-20T14:02:22.808Z,47.90
2018-06-20T14:04:51.152Z,48.20
2018-06-20T14:07:19.479Z,46.70
2018-06-20T14:09:47.830Z,45.90
2018-06-20T14:12:16.157Z,48.30
2018-06-20T14:14:44.501Z,47.40
2018-06-20T14:17:12.809Z,45.80
2018-06-20T14:19:46.665Z,45.70
2018-06-20T14:22:14.986Z,45.70
2018-06-20T14:24:43.329Z,45.30
2018-06-20T14:27:11.646Z,45.60
2018-06-20T14:29:41.811Z,45.90
2018-06-20T14:34:49.032Z,45.40
2018-06-20T14:37:22.605Z,43.90
2018-06-20T14:39:56.261Z,45.10
2018-06-20T14:42:29.929Z,45.60
2018-06-20T14:45:03.645Z,46.40
2018-06-20T14:47:31.992Z,46.80
2018-06-20T14:50:00.323Z,46.70
2018-06-20T14:52:28.640Z,46.40
2018-06-20T14:54:56.970Z,46.90
2018-06-20T14:57:25.277Z,45.10
2018-06-20T14:59:53.653Z,45.10
2018-06-20T15:02:21.989Z,44.10
2018-06-20T15:04:50.317Z,45.60
2018-06-20T15:07:18.621Z,45.60
2018-06-20T15:09:46.940Z,45.80
2018-06-20T15:12:15.294Z,44.20
2018-06-20T15:14:43.609Z,45.90
2018-06-20T15:17:17.225Z,44.90
2018-06-20T15:19:45.598Z,44.30
2018-06-20T15:22:13.949Z,44.30
2018-06-20T15:24:42.354Z,43.50
2018-06-20T15:27:16.119Z,44.10
2018-06-20T15:29:49.782Z,43.80
2018-06-20T15:34:56.994Z,44.60
2018-06-20T15:37:30.842Z,44.70
2018-06-20T15:39:59.177Z,45.00
2018-06-20T15:42:27.517Z,44.80
2018-06-20T15:44:55.837Z,44.60
2018-06-20T15:47:24.160Z,44.50
2018-06-20T15:49:52.493Z,44.20
2018-06-20T15:52:20.873Z,44.50
2018-06-20T15:54:49.203Z,45.00
2018-06-20T15:57:17.520Z,44.90
2018-06-20T15:59:45.863Z,44.60
2018-06-20T16:02:14.225Z,45.10
2018-06-20T16:04:42.544Z,44.30
2018-06-20T16:07:10.897Z,43.10
2018-06-20T16:09:44.682Z,44.60
2018-06-20T16:12:13.028Z,45.40
2018-06-20T16:14:41.345Z,42.90
2018-06-20T16:17:09.693Z,44.00
2018-06-20T16:19:43.521Z,42.60
2018-06-20T16:22:17.293Z,44.50
2018-06-20T16:25:49.406Z,45.30
2018-06-20T16:28:23.025Z,43.40
2018-06-20T16:30:51.345Z,42.90
2018-06-20T16:33:19.669Z,43.80
2018-06-20T16:35:47.985Z,45.20
2018-06-20T16:38:16.292Z,44.30
2018-06-20T16:40:44.590Z,44.60
2018-06-20T16:43:12.909Z,45.40
2018-06-20T16:45:41.267Z,43.20
2018-06-20T16:48:09.609Z,44.90
2018-06-20T16:50:37.913Z,44.80
2018-06-20T16:53:06.275Z,44.00
2018-06-20T16:55:34.553Z,44.80
2018-06-20T16:58:02.868Z,43.50
2018-06-20T17:00:31.173Z,43.30
2018-06-20T17:02:59.505Z,43.00
2018-06-20T17:05:27.810Z,41.80
2018-06-20T17:07:56.129Z,42.00
2018-06-20T17:10:24.445Z,41.10
2018-06-20T17:12:58.145Z,42.20
2018-06-20T17:15:31.796Z,41.40
2018-06-20T17:18:05.476Z,41.80
2018-06-20T17:20:39.206Z,40.80
2018-06-20T17:23:12.936Z,39.00
2018-06-20T17:25:41.240Z,40.80
2018-06-20T17:28:09.561Z,41.40
2018-06-20T17:30:37.884Z,41.40
2018-06-20T17:33:06.296Z,40.80
2018-06-20T17:35:34.593Z,38.80
2018-06-20T17:38:03.017Z,40.20
2018-06-20T17:40:31.282Z,41.40
2018-06-20T17:42:59.645Z,40.60
2018-06-20T17:45:27.945Z,39.70
2018-06-20T17:47:56.298Z,39.90
2018-06-20T17:50:24.688Z,39.30
2018-06-20T17:52:53.027Z,38.90
2018-06-20T17:55:21.332Z,39.00
2018-06-20T17:57:49.665Z,38.80
2018-06-20T18:00:18.006Z,38.80
2018-06-20T18:02:46.330Z,38.70
2018-06-20T18:05:19.980Z,39.00
2018-06-20T18:07:53.846Z,38.90
2018-06-20T18:10:27.672Z,38.80
2018-06-20T18:13:00.254Z,38.80
2018-06-20T18:15:33.882Z,39.10
2018-06-20T18:18:02.217Z,38.90
2018-06-20T18:20:30.533Z,38.90
2018-06-20T18:22:58.857Z,38.40
2018-06-20T18:25:27.169Z,38.90
2018-06-20T18:27:55.586Z,39.10
2018-06-20T18:30:23.930Z,39.60
2018-06-20T18:32:59.554Z,39.60
2018-06-20T18:35:27.849Z,40.30
2018-06-20T18:37:56.172Z,39.90
2018-06-20T18:40:24.497Z,40.50
2018-06-20T18:42:52.819Z,41.00
2018-06-20T18:45:21.177Z,41.50
2018-06-20T18:47:54.830Z,42.10
2018-06-20T18:50:23.180Z,42.60
2018-06-20T18:52:51.499Z,42.70
2018-06-20T18:55:19.829Z,43.20
2018-06-20T18:57:53.476Z,44.00
2018-06-20T19:00:27.617Z,44.70
2018-06-20T19:03:01.634Z,45.60
2018-06-20T19:05:35.118Z,46.20
2018-06-20T19:08:08.889Z,46.80
2018-06-20T19:10:37.229Z,47.40
2018-06-20T19:13:05.617Z,48.10
2018-06-20T19:15:33.972Z,48.50
2018-06-20T19:18:02.285Z,48.90
2018-06-20T19:20:30.617Z,49.20
2018-06-20T19:22:58.937Z,49.60
2018-06-20T19:25:27.284Z,49.50
2018-06-20T19:27:55.601Z,50.20
2018-06-20T19:30:23.938Z,50.80
2018-06-20T19:32:52.271Z,50.50
2018-06-20T19:35:20.593Z,51.70
2018-06-20T19:37:48.916Z,52.00
2018-06-20T19:40:17.241Z,52.20
2018-06-20T19:42:45.558Z,53.00
2018-06-20T19:45:13.900Z,53.50
2018-06-20T19:47:42.218Z,54.00
2018-06-20T19:50:10.567Z,54.10
2018-06-20T19:52:38.885Z,54.20
2018-06-20T19:55:07.221Z,54.30
2018-06-20T19:57:35.557Z,54.40
2018-06-20T20:00:03.935Z,54.70
2018-06-20T20:02:32.302Z,55.00
2018-06-20T20:05:00.621Z,55.20
2018-06-20T20:07:29.041Z,55.70
2018-06-20T20:09:57.365Z,56.40
2018-06-20T20:12:25.708Z,57.00
2018-06-20T20:17:22.097Z,58.80
2018-06-20T20:19:50.409Z,59.30
2018-06-20T20:22:18.737Z,59.90
2018-06-20T20:24:47.080Z,60.20
2018-06-20T20:27:15.409Z,60.40
2018-06-20T20:29:43.731Z,60.70
2018-06-20T20:32:12.073Z,60.90
2018-06-20T20:34:40.404Z,60.90
2018-06-20T20:37:08.794Z,61.20
2018-06-20T20:39:37.121Z,61.50
2018-06-20T20:42:05.464Z,61.70
2018-06-20T20:44:33.785Z,61.60
2018-06-20T20:47:02.126Z,61.70
2018-06-20T20:49:30.477Z,61.50
2018-06-20T20:51:58.785Z,61.50
2018-06-20T20:54:27.106Z,61.70
2018-06-20T20:56:55.422Z,61.80
2018-06-20T20:59:23.770Z,61.80
2018-06-20T21:01:52.341Z,62.10
2018-06-20T21:04:20.684Z,62.20
2018-06-20T21:06:49.000Z,62.20
2018-06-20T21:09:17.354Z,62.50
2018-06-20T21:11:45.668Z,62.20
2018-06-20T21:14:14.009Z,62.40
2018-06-20T21:16:42.363Z,62.40
2018-06-20T21:19:10.708Z,62.30
2018-06-20T21:21:39.047Z,62.50
2018-06-20T21:24:07.395Z,62.50
2018-06-20T21:26:35.724Z,62.70
2018-06-20T21:29:04.129Z,63.10
2018-06-20T21:31:34.374Z,63.70
2018-06-20T21:34:02.736Z,64.10
2018-06-20T21:36:31.070Z,64.20
2018-06-20T21:38:59.416Z,65.00
2018-06-20T21:41:27.749Z,65.80
2018-06-20T21:43:56.084Z,66.30
2018-06-20T21:46:24.413Z,66.70
2018-06-20T21:48:52.863Z,66.90
2018-06-20T21:51:21.192Z,67.30
2018-06-20T21:53:49.533Z,67.50
2018-06-20T21:56:17.860Z,68.70
2018-06-20T21:58:46.202Z,69.70
2018-06-20T22:01:14.527Z,70.60
2018-06-20T22:03:42.873Z,71.30
2018-06-20T22:06:11.189Z,71.60
2018-06-20T22:08:39.540Z,71.60
2018-06-20T22:11:07.909Z,71.80
2018-06-20T22:13:36.293Z,71.70
2018-06-20T22:16:04.611Z,72.60
2018-06-20T22:18:33.050Z,73.70
2018-06-20T22:21:01.413Z,74.40
2018-06-20T22:23:29.737Z,74.70
2018-06-20T22:25:58.065Z,74.60
2018-06-20T22:28:26.389Z,75.20
2018-06-20T22:30:54.725Z,75.40
2018-06-20T22:33:23.045Z,74.90
2018-06-20T22:35:51.397Z,75.30
2018-06-20T22:38:19.709Z,76.30
2018-06-20T22:40:48.045Z,76.60
2018-06-20T22:43:16.356Z,77.10
2018-06-20T22:45:44.681Z,77.00
2018-06-20T22:48:12.988Z,77.10
2018-06-20T22:50:41.327Z,77.80
2018-06-20T22:53:09.631Z,79.00
2018-06-20T22:55:37.952Z,79.40
2018-06-20T22:58:06.268Z,79.60
2018-06-20T23:00:34.596Z,79.30
2018-06-20T23:03:02.941Z,78.80
2018-06-20T23:05:31.281Z,78.70
2018-06-20T23:07:59.610Z,78.90
2018-06-20T23:10:27.942Z,79.90
2018-06-20T23:12:56.255Z,80.10
2018-06-20T23:15:24.592Z,79.90
2018-06-20T23:20:20.975Z,81.20
2018-06-20T23:22:49.327Z,82.30
2018-06-20T23:25:17.639Z,82.70
2018-06-20T23:27:45.956Z,83.20
2018-06-20T23:30:14.267Z,83.90
2018-06-20T23:32:42.665Z,84.60
2018-06-20T23:35:10.987Z,84.60
2018-06-20T23:37:39.328Z,85.10
2018-06-20T23:40:07.637Z,84.70
2018-06-20T23:42:35.969Z,85.10
2018-06-20T23:45:04.350Z,85.40
2018-06-20T23:47:32.678Z,85.70
2018-06-20T23:50:00.994Z,85.80
2018-06-20T23:52:29.384Z,86.00
2018-06-20T23:54:57.681Z,86.20
2018-06-20T23:57:26.013Z,85.80
2018-06-20T23:59:54.368Z,86.50
